createdAt,value
2022-08-17T06:13:58.002Z,3.07
2022-08-17T06:23:57.912Z,3.65
2022-08-17T06:33:58.161Z,4.09
2022-08-17T06:43:58.138Z,4.87
2022-08-17T06:53:58.045Z,1.51
2022-08-17T07:03:58.215Z,0.00
2022-08-17T07:13:58.241Z,0.00
2022-08-17T07:23:58.118Z,0.00
2022-08-17T07:33:58.174Z,0.00
2022-08-17T07:43:58.113Z,0.00
2022-08-17T07:54:13.094Z,0.00
2022-08-17T08:03:58.203Z,0.00
2022-08-17T08:13:58.130Z,0.00
2022-08-17T08:23:58.200Z,0.00
2022-08-17T08:33:58.164Z,0.00
2022-08-17T08:43:58.217Z,0.00
2022-08-17T08:53:58.246Z,0.00
2022-08-17T09:04:17.021Z,0.00
2022-08-17T09:13:58.256Z,0.00
2022-08-17T09:23:58.197Z,0.00
2022-08-17T09:33:58.178Z,0.00
2022-08-17T09:43:58.326Z,0.00
2022-08-17T09:54:14.694Z,0.00
2022-08-17T10:03:58.242Z,0.00
2022-08-17T10:13:59.603Z,0.00
2022-08-17T10:23:58.258Z,0.00
2022-08-17T10:33:58.324Z,0.00
2022-08-17T10:44:39.055Z,0.00
2022-08-17T10:53:58.424Z,0.00
2022-08-17T11:03:58.403Z,0.00
2022-08-17T11:13:58.280Z,0.00
2022-08-17T11:23:58.641Z,0.00
2022-08-17T11:33:58.417Z,0.00
2022-08-17T11:43:58.441Z,0.00
2022-08-17T11:54:21.682Z,0.00
2022-08-17T12:03:58.329Z,0.00
2022-08-17T12:13:58.393Z,0.00
2022-08-17T12:23:58.360Z,0.00
2022-08-17T12:33:58.513Z,0.00
2022-08-17T12:43:58.449Z,0.00
2022-08-17T12:53:58.554Z,0.00
2022-08-17T13:03:58.517Z,0.00
2022-08-17T13:13:58.576Z,0.00
2022-08-17T13:23:58.752Z,0.00
2022-08-17T13:33:58.803Z,0.00
2022-08-17T13:43:58.791Z,0.00
2022-08-17T13:53:58.715Z,0.00
2022-08-17T14:03:58.873Z,0.00
2022-08-17T14:13:58.783Z,0.00
2022-08-17T14:23:58.655Z,0.00
2022-08-17T14:33:58.771Z,0.00
2022-08-17T14:43:58.835Z,0.00
2022-08-17T14:53:58.932Z,0.00
2022-08-17T15:03:58.679Z,0.00
2022-08-17T15:13:58.818Z,0.00
2022-08-17T15:23:59.056Z,0.00
2022-08-17T15:33:58.807Z,0.00
2022-08-17T15:43:58.933Z,0.00
2022-08-17T15:53:59.056Z,0.00
2022-08-17T16:04:04.035Z,0.00
2022-08-17T16:13:58.872Z,0.00
2022-08-17T16:23:58.868Z,0.00
2022-08-17T16:34:15.652Z,0.00
2022-08-17T16:43:58.987Z,0.00
2022-08-17T16:53:59.289Z,0.00
2022-08-17T17:03:58.883Z,0.00
2022-08-17T17:13:58.826Z,0.00
2022-08-17T17:23:59.035Z,0.00
2022-08-17T17:33:58.998Z,0.00
2022-08-17T17:43:59.104Z,0.00
2022-08-17T17:53:58.889Z,0.00
2022-08-17T18:03:59.028Z,0.00
2022-08-17T18:13:59.010Z,0.00
2022-08-17T18:23:59.200Z,0.00
2022-08-17T18:33:59.085Z,0.00
2022-08-17T18:43:59.112Z,0.00
2022-08-17T18:53:59.536Z,2.01
2022-08-17T19:03:59.335Z,1.46
2022-08-17T19:13:59.452Z,1.28
